createdAt,value
2018-06-13T00:00:04.013Z,10.40
2018-06-13T00:02:32.389Z,7.30
2018-06-13T00:05:00.641Z,6.33
2018-06-13T00:07:28.922Z,7.47
2018-06-13T00:09:57.168Z,5.37
2018-06-13T00:12:25.396Z,9.10
2018-06-13T00:14:53.624Z,7.37
2018-06-13T00:17:21.850Z,7.97
2018-06-13T00:19:50.073Z,9.10
2018-06-13T00:22:20.204Z,6.83
2018-06-13T00:24:48.430Z,5.33
2018-06-13T00:27:16.661Z,7.47
2018-06-13T00:29:44.890Z,6.13
2018-06-13T00:32:13.121Z,5.53
2018-06-13T00:34:41.342Z,9.23
2018-06-13T00:37:09.658Z,8.63
2018-06-13T00:39:37.845Z,5.20
2018-06-13T00:42:05.852Z,8.13
2018-06-13T00:44:33.892Z,5.20
2018-06-13T00:47:02.126Z,8.83
2018-06-13T00:49:30.372Z,6.97
2018-06-13T00:51:58.606Z,5.77
2018-06-13T00:54:26.882Z,7.20
2018-06-13T00:56:55.098Z,8.03
2018-06-13T00:59:23.322Z,7.63
2018-06-13T01:01:51.573Z,6.93
2018-06-13T01:04:19.821Z,7.10
2018-06-13T01:06:48.060Z,7.03
2018-06-13T01:09:16.314Z,6.67
2018-06-13T01:11:44.587Z,7.70
2018-06-13T01:14:12.837Z,9.63
2018-06-13T01:16:41.152Z,8.27
2018-06-13T01:19:09.350Z,9.43
2018-06-13T01:21:37.588Z,8.23
2018-06-13T01:24:06.058Z,10.10
2018-06-13T01:26:34.301Z,7.73
2018-06-13T01:29:02.530Z,6.87
2018-06-13T01:31:30.771Z,10.00
2018-06-13T01:33:59.000Z,6.57
2018-06-13T01:36:28.649Z,7.93
2018-06-13T01:38:57.204Z,8.20
2018-06-13T01:41:25.538Z,7.80
2018-06-13T01:43:53.813Z,6.27
2018-06-13T01:46:22.084Z,6.90
2018-06-13T01:48:50.388Z,5.97
2018-06-13T01:51:18.610Z,7.47
2018-06-13T01:53:46.839Z,7.00
2018-06-13T01:56:15.076Z,6.43
2018-06-13T01:58:43.320Z,7.33
2018-06-13T02:01:11.544Z,8.73
2018-06-13T02:03:39.780Z,8.80
2018-06-13T02:06:08.014Z,6.97
2018-06-13T02:08:36.248Z,7.33
2018-06-13T02:11:04.494Z,5.73
2018-06-13T02:13:32.737Z,6.87
2018-06-13T02:16:00.978Z,7.83
2018-06-13T02:18:29.217Z,6.83
2018-06-13T02:20:57.445Z,6.30
2018-06-13T02:23:25.689Z,8.47
2018-06-13T02:25:53.937Z,7.17
2018-06-13T02:28:22.164Z,7.23
2018-06-13T02:30:50.393Z,6.57
2018-06-13T02:33:18.637Z,5.77
2018-06-13T02:35:46.890Z,6.93
2018-06-13T02:38:15.146Z,6.60
2018-06-13T02:40:43.400Z,8.50
2018-06-13T02:43:11.641Z,7.10
2018-06-13T02:45:39.880Z,6.70
2018-06-13T02:48:08.120Z,10.70
2018-06-13T02:50:36.344Z,7.87
2018-06-13T02:53:04.765Z,8.53
2018-06-13T02:55:33.005Z,5.80
2018-06-13T02:58:01.250Z,10.23
2018-06-13T03:00:29.494Z,8.50
2018-06-13T03:02:57.724Z,6.13
2018-06-13T03:05:25.964Z,6.70
2018-06-13T03:07:54.200Z,5.23
2018-06-13T03:10:22.445Z,9.93
2018-06-13T03:12:50.681Z,5.67
2018-06-13T03:15:18.909Z,5.57
2018-06-13T03:17:47.149Z,7.30
2018-06-13T03:20:15.417Z,10.13
2018-06-13T03:22:44.054Z,7.10
2018-06-13T03:25:12.289Z,8.70
2018-06-13T03:27:40.521Z,7.73
2018-06-13T03:30:08.781Z,6.40
2018-06-13T03:32:37.020Z,6.73
2018-06-13T03:35:05.260Z,7.17
2018-06-13T03:37:33.508Z,7.87
2018-06-13T03:40:01.803Z,6.93
2018-06-13T03:42:29.992Z,6.20
2018-06-13T03:44:58.216Z,8.63
2018-06-13T03:47:26.465Z,7.97
2018-06-13T03:49:55.776Z,5.83
2018-06-13T03:52:24.228Z,10.37
2018-06-13T03:54:52.470Z,6.10
2018-06-13T03:57:20.737Z,6.60
2018-06-13T03:59:49.001Z,8.57
2018-06-13T04:02:17.265Z,5.93
2018-06-13T04:04:45.517Z,6.87
2018-06-13T04:07:14.100Z,7.30
2018-06-13T04:09:42.334Z,6.07
2018-06-13T04:12:10.607Z,6.80
2018-06-13T04:14:38.630Z,7.33
2018-06-13T04:17:06.896Z,11.33
2018-06-13T04:19:35.415Z,9.33
2018-06-13T04:22:03.703Z,7.97
2018-06-13T04:24:31.943Z,6.93
2018-06-13T04:27:00.168Z,7.13
2018-06-13T04:29:28.409Z,7.70
2018-06-13T04:31:56.658Z,8.00
2018-06-13T04:34:24.969Z,7.43
2018-06-13T04:36:53.199Z,7.67
2018-06-13T04:39:21.448Z,6.63
2018-06-13T04:41:49.708Z,9.27
2018-06-13T04:44:17.920Z,5.97
2018-06-13T04:46:46.244Z,6.07
2018-06-13T04:49:15.521Z,10.10
2018-06-13T04:51:43.834Z,8.80
2018-06-13T04:54:12.073Z,11.17
2018-06-13T04:56:40.325Z,7.43
2018-06-13T04:59:09.586Z,8.63
2018-06-13T05:01:37.913Z,11.43
2018-06-13T05:04:06.171Z,8.10
2018-06-13T05:06:34.872Z,5.67
2018-06-13T05:09:03.164Z,6.90
2018-06-13T05:11:31.481Z,9.13
2018-06-13T05:13:59.718Z,9.67
2018-06-13T05:16:27.952Z,8.70
2018-06-13T05:18:56.193Z,7.93
2018-06-13T05:21:24.424Z,7.87
2018-06-13T05:23:52.668Z,10.80
2018-06-13T05:26:20.901Z,9.80
2018-06-13T05:28:49.145Z,7.13
2018-06-13T05:31:17.377Z,9.57
2018-06-13T05:33:45.601Z,7.73
2018-06-13T05:36:13.830Z,8.67
2018-06-13T05:38:42.048Z,11.10
2018-06-13T05:41:10.280Z,12.80
2018-06-13T05:43:38.509Z,10.00
2018-06-13T05:46:06.746Z,11.33
2018-06-13T05:48:35.013Z,11.07
2018-06-13T05:51:03.241Z,10.67
2018-06-13T05:53:31.474Z,9.37
2018-06-13T05:55:59.710Z,8.43
2018-06-13T05:58:27.949Z,8.90
2018-06-13T06:00:56.200Z,10.43
2018-06-13T06:03:24.429Z,11.07
2018-06-13T06:05:52.653Z,9.30
2018-06-13T06:08:20.936Z,12.87
2018-06-13T06:10:49.166Z,10.77
2018-06-13T06:13:17.409Z,10.53
2018-06-13T06:15:45.670Z,9.20
2018-06-13T06:18:13.924Z,8.93
2018-06-13T06:20:42.169Z,10.43
2018-06-13T06:23:10.429Z,8.83
2018-06-13T06:25:38.670Z,10.03
2018-06-13T06:28:06.926Z,9.30
2018-06-13T06:30:35.176Z,8.03
2018-06-13T06:33:03.406Z,8.30
2018-06-13T06:35:31.641Z,7.43
2018-06-13T06:37:59.916Z,8.27
2018-06-13T06:40:28.133Z,7.03
2018-06-13T06:42:56.374Z,8.77
2018-06-13T06:45:24.701Z,7.10
2018-06-13T06:47:52.928Z,7.57
2018-06-13T06:50:21.520Z,10.80
2018-06-13T06:52:49.813Z,8.97
2018-06-13T06:55:18.049Z,7.67
2018-06-13T06:57:46.302Z,8.60
2018-06-13T07:00:14.272Z,6.87
2018-06-13T07:02:42.567Z,8.03
2018-06-13T07:05:10.752Z,7.43
2018-06-13T07:07:38.985Z,7.70
2018-06-13T07:10:07.248Z,9.43
2018-06-13T07:12:35.469Z,6.57
2018-06-13T07:15:03.733Z,9.17
2018-06-13T07:17:32.030Z,9.07
2018-06-13T07:20:00.252Z,8.00
2018-06-13T07:22:28.504Z,7.07
2018-06-13T07:24:56.741Z,7.63
2018-06-13T07:27:24.977Z,7.80
2018-06-13T07:29:53.209Z,7.23
2018-06-13T07:32:21.449Z,6.50
2018-06-13T07:34:49.744Z,8.87
2018-06-13T07:37:18.001Z,6.37
2018-06-13T07:39:46.241Z,6.83
2018-06-13T07:42:14.481Z,5.77
2018-06-13T07:44:42.729Z,5.83
2018-06-13T07:47:10.961Z,5.10
2018-06-13T07:49:39.259Z,5.67
2018-06-13T07:52:07.462Z,5.23
2018-06-13T07:54:35.701Z,5.87
2018-06-13T07:57:03.945Z,7.47
2018-06-13T07:59:32.606Z,5.17
2018-06-13T08:02:00.862Z,5.47
2018-06-13T08:04:28.831Z,4.70
2018-06-13T08:06:57.062Z,4.30
2018-06-13T08:09:25.293Z,6.20
2018-06-13T08:11:53.519Z,3.70
2018-06-13T08:14:22.177Z,3.87
2018-06-13T08:16:50.427Z,6.87
2018-06-13T08:19:18.665Z,3.50
2018-06-13T08:21:46.905Z,3.40
2018-06-13T08:24:15.134Z,3.13
2018-06-13T08:26:44.465Z,3.00
2018-06-13T08:29:12.696Z,3.87
2018-06-13T08:31:41.118Z,6.20
2018-06-13T08:34:09.404Z,3.37
2018-06-13T08:36:37.665Z,4.60
2018-06-13T08:39:07.673Z,3.80
2018-06-13T08:41:36.032Z,3.80
2018-06-13T08:44:04.261Z,5.67
2018-06-13T08:46:32.522Z,3.67
2018-06-13T08:49:00.754Z,4.70
2018-06-13T08:51:28.988Z,3.63
2018-06-13T08:53:57.225Z,5.40
2018-06-13T08:56:25.469Z,3.03
2018-06-13T08:58:53.702Z,3.90
2018-06-13T09:01:21.944Z,4.20
2018-06-13T09:03:50.173Z,4.00
2018-06-13T09:06:18.408Z,3.63
2018-06-13T09:08:46.656Z,3.80
2018-06-13T09:11:14.897Z,3.53
2018-06-13T09:13:43.135Z,5.23
2018-06-13T09:16:11.370Z,3.60
2018-06-13T09:18:39.609Z,3.90
2018-06-13T09:21:07.859Z,4.43
2018-06-13T09:23:36.100Z,3.70
2018-06-13T09:26:04.329Z,3.50
2018-06-13T09:28:32.573Z,10.67
2018-06-13T09:31:00.806Z,4.13
2018-06-13T09:33:29.092Z,3.43
2018-06-13T09:35:57.324Z,5.00
2018-06-13T09:38:25.545Z,4.17
2018-06-13T09:40:53.789Z,3.33
2018-06-13T09:43:22.018Z,3.97
2018-06-13T09:45:50.264Z,4.30
2018-06-13T09:48:18.527Z,4.27
2018-06-13T09:50:46.768Z,3.17
2018-06-13T09:53:15.009Z,3.80
2018-06-13T09:55:43.258Z,4.70
2018-06-13T09:58:12.674Z,3.20
2018-06-13T10:00:46.393Z,4.47
2018-06-13T10:03:14.645Z,3.90
2018-06-13T10:05:42.881Z,3.80
2018-06-13T10:08:11.117Z,3.70
2018-06-13T10:10:39.364Z,3.47
2018-06-13T10:13:07.607Z,4.57
2018-06-13T10:15:35.844Z,3.87
2018-06-13T10:18:04.087Z,6.30
2018-06-13T10:20:32.330Z,3.20
2018-06-13T10:23:00.557Z,2.60
2018-06-13T10:25:28.844Z,4.23
2018-06-13T10:27:57.041Z,2.63
2018-06-13T10:30:25.358Z,3.73
2018-06-13T10:32:53.600Z,2.70
2018-06-13T10:35:21.846Z,3.60
2018-06-13T10:37:50.082Z,3.00
2018-06-13T10:40:18.331Z,5.03
2018-06-13T10:42:46.579Z,4.13
2018-06-13T10:45:14.832Z,2.70
2018-06-13T10:47:43.061Z,2.57
2018-06-13T10:50:11.298Z,2.60
2018-06-13T10:52:39.520Z,3.30
2018-06-13T10:55:07.754Z,2.43
2018-06-13T10:57:36.017Z,2.17
2018-06-13T11:00:04.545Z,3.67
2018-06-13T11:02:32.800Z,3.50
2018-06-13T11:05:01.041Z,2.43
2018-06-13T11:07:29.260Z,3.23
2018-06-13T11:09:57.481Z,4.97
2018-06-13T11:12:25.716Z,3.27
2018-06-13T11:14:53.954Z,4.07
2018-06-13T11:17:22.180Z,4.63
2018-06-13T11:19:50.406Z,3.00
2018-06-13T11:22:18.687Z,3.57
2018-06-13T11:24:46.973Z,3.03
2018-06-13T11:27:15.229Z,2.23
2018-06-13T11:29:43.471Z,4.00
2018-06-13T11:32:11.717Z,2.27
2018-06-13T11:34:39.955Z,5.73
2018-06-13T11:37:07.981Z,3.80
2018-06-13T11:39:36.273Z,3.30
2018-06-13T11:42:04.495Z,5.80
2018-06-13T11:44:32.820Z,3.20
2018-06-13T11:47:01.071Z,4.83
2018-06-13T11:49:29.314Z,4.90
2018-06-13T11:51:57.548Z,4.50
2018-06-13T11:54:25.789Z,3.50
2018-06-13T11:56:54.025Z,3.63
2018-06-13T11:59:23.463Z,5.70
2018-06-13T12:01:51.808Z,5.07
2018-06-13T12:04:20.006Z,3.30
2018-06-13T12:06:48.249Z,3.93
2018-06-13T12:09:16.494Z,3.90
2018-06-13T12:11:44.773Z,3.70
2018-06-13T12:14:13.006Z,3.33
2018-06-13T12:16:41.247Z,5.07
2018-06-13T12:19:09.474Z,3.57
2018-06-13T12:21:37.706Z,4.40
2018-06-13T12:24:05.949Z,3.77
2018-06-13T12:26:34.180Z,2.70
2018-06-13T12:29:02.420Z,6.30
2018-06-13T12:31:31.749Z,3.37
2018-06-13T12:33:59.997Z,2.83
2018-06-13T12:36:28.238Z,4.33
2018-06-13T12:38:56.493Z,4.47
2018-06-13T12:41:24.721Z,3.20
2018-06-13T12:43:52.952Z,4.20
2018-06-13T12:46:21.257Z,3.47
2018-06-13T12:48:49.502Z,5.87
2018-06-13T12:51:17.752Z,2.60
2018-06-13T12:53:45.985Z,5.23
2018-06-13T12:56:14.204Z,2.43
2018-06-13T12:58:42.470Z,4.43
2018-06-13T13:01:10.733Z,4.00
2018-06-13T13:03:38.954Z,2.30
2018-06-13T13:06:07.190Z,4.87
2018-06-13T13:08:35.420Z,6.40
2018-06-13T13:11:03.694Z,2.87
2018-06-13T13:13:31.900Z,1.70
2018-06-13T13:16:00.134Z,3.50
2018-06-13T13:18:28.375Z,4.90
2018-06-13T13:20:56.600Z,4.00
2018-06-13T13:23:24.840Z,4.60
2018-06-13T13:25:53.228Z,3.13
2018-06-13T13:28:21.468Z,3.00
2018-06-13T13:30:49.964Z,3.60
2018-06-13T13:33:18.191Z,2.73
2018-06-13T13:35:46.517Z,2.43
2018-06-13T13:38:14.729Z,1.97
2018-06-13T13:40:42.970Z,1.70
2018-06-13T13:43:11.213Z,2.53
2018-06-13T13:45:39.529Z,2.73
2018-06-13T13:48:07.736Z,3.50
2018-06-13T13:50:36.058Z,4.13
2018-06-13T13:53:04.305Z,2.23
2018-06-13T13:55:32.546Z,4.00
2018-06-13T13:58:00.776Z,2.10
2018-06-13T14:00:29.011Z,3.53
2018-06-13T14:02:57.244Z,4.23
2018-06-13T14:05:25.664Z,4.13
2018-06-13T14:07:53.962Z,2.83
2018-06-13T14:10:22.209Z,3.00
2018-06-13T14:12:50.543Z,3.60
2018-06-13T14:15:18.941Z,4.20
2018-06-13T14:17:47.190Z,4.03
2018-06-13T14:20:15.556Z,5.60
2018-06-13T14:22:43.793Z,2.43
2018-06-13T14:25:12.038Z,4.27
2018-06-13T14:27:40.317Z,3.37
2018-06-13T14:30:09.389Z,3.40
2018-06-13T14:32:37.625Z,3.93
2018-06-13T14:35:06.045Z,1.50
2018-06-13T14:37:34.283Z,4.00
2018-06-13T14:40:02.513Z,3.83
2018-06-13T14:42:30.761Z,3.43
2018-06-13T14:44:58.994Z,3.87
2018-06-13T14:47:27.237Z,5.33
2018-06-13T14:49:56.061Z,5.57
2018-06-13T14:52:24.453Z,2.33
2018-06-13T14:54:52.746Z,2.20
2018-06-13T14:57:21.254Z,5.73
2018-06-13T14:59:49.512Z,1.70
2018-06-13T15:02:17.849Z,1.93
2018-06-13T15:04:46.155Z,3.73
2018-06-13T15:07:14.614Z,2.27
2018-06-13T15:09:44.094Z,2.43
2018-06-13T15:12:12.364Z,3.10
2018-06-13T15:14:40.685Z,3.40
2018-06-13T15:17:08.991Z,2.10
2018-06-13T15:19:37.286Z,2.17
2018-06-13T15:22:05.752Z,3.70
2018-06-13T15:24:40.728Z,3.90
2018-06-13T15:27:09.146Z,2.57
2018-06-13T15:29:37.974Z,2.80
2018-06-13T15:32:06.358Z,3.73
2018-06-13T15:34:34.596Z,3.00
2018-06-13T15:37:02.878Z,2.93
2018-06-13T15:39:31.207Z,3.87
2018-06-13T15:41:59.633Z,2.50
2018-06-13T15:44:27.869Z,4.00
2018-06-13T15:46:57.298Z,2.87
2018-06-13T15:49:25.569Z,3.50
2018-06-13T15:51:53.863Z,2.73
2018-06-13T15:54:25.365Z,2.40
2018-06-13T15:56:53.864Z,2.40
2018-06-13T15:59:22.190Z,3.67
2018-06-13T16:01:50.591Z,2.23
2018-06-13T16:04:19.033Z,2.23
2018-06-13T16:06:47.484Z,3.17
2018-06-13T16:09:16.385Z,2.33
2018-06-13T16:11:44.648Z,4.93
2018-06-13T16:14:12.946Z,3.90
2018-06-13T16:16:41.364Z,5.40
2018-06-13T16:19:10.631Z,2.20
2018-06-13T16:21:38.924Z,1.30
2018-06-13T16:24:07.252Z,1.90
2018-06-13T16:26:35.565Z,2.87
2018-06-13T16:29:04.153Z,2.30
2018-06-13T16:31:32.419Z,4.30
2018-06-13T16:34:00.696Z,3.57
2018-06-13T16:36:28.977Z,1.60
2018-06-13T16:38:57.233Z,2.70
2018-06-13T16:41:25.581Z,3.43
2018-06-13T16:43:55.600Z,1.60
2018-06-13T16:46:23.928Z,2.97
2018-06-13T16:48:52.203Z,3.00
2018-06-13T16:51:32.084Z,3.27
2018-06-13T16:54:04.929Z,3.33
2018-06-13T16:56:33.398Z,3.90
2018-06-13T16:59:01.892Z,1.97
2018-06-13T17:01:30.171Z,1.43
2018-06-13T17:03:58.426Z,3.57
2018-06-13T17:06:26.673Z,2.67
2018-06-13T17:08:54.956Z,5.17
2018-06-13T17:11:23.262Z,3.73
2018-06-13T17:13:51.557Z,3.47
2018-06-13T17:16:19.825Z,2.20
2018-06-13T17:18:48.069Z,1.63
2018-06-13T17:21:16.063Z,2.37
2018-06-13T17:23:44.322Z,3.53
2018-06-13T17:26:12.580Z,4.03
2018-06-13T17:28:40.841Z,2.37
2018-06-13T17:31:09.095Z,4.43
2018-06-13T17:33:37.412Z,1.87
2018-06-13T17:36:05.632Z,1.67
2018-06-13T17:38:33.919Z,4.03
2018-06-13T17:41:02.187Z,2.13
2018-06-13T17:43:30.466Z,2.77
2018-06-13T17:45:58.717Z,2.63
2018-06-13T17:48:26.980Z,4.63
2018-06-13T17:50:55.225Z,3.53
2018-06-13T17:53:23.474Z,3.77
2018-06-13T17:55:51.745Z,4.20
2018-06-13T17:58:20.034Z,3.17
2018-06-13T18:00:48.323Z,3.63
2018-06-13T18:03:16.616Z,3.73
2018-06-13T18:05:44.890Z,3.03
2018-06-13T18:08:13.185Z,2.30
2018-06-13T18:10:41.456Z,3.63
2018-06-13T18:13:09.757Z,5.13
2018-06-13T18:15:38.053Z,4.23
2018-06-13T18:18:06.377Z,3.03
2018-06-13T18:20:36.009Z,2.77
2018-06-13T18:23:04.352Z,3.07
2018-06-13T18:25:32.628Z,3.23
2018-06-13T18:28:00.892Z,2.77
2018-06-13T18:30:29.454Z,5.23
2018-06-13T18:32:57.717Z,2.80
2018-06-13T18:35:25.988Z,2.97
2018-06-13T18:37:54.295Z,3.03
2018-06-13T18:40:22.549Z,2.00
2018-06-13T18:42:50.824Z,3.07
2018-06-13T18:45:19.149Z,4.67
2018-06-13T18:47:47.960Z,2.30
2018-06-13T18:50:16.272Z,3.07
2018-06-13T18:52:44.560Z,2.83
2018-06-13T18:55:12.904Z,3.40
2018-06-13T18:57:41.259Z,3.83
2018-06-13T19:00:09.465Z,3.03
2018-06-13T19:02:37.826Z,4.63
2018-06-13T19:05:06.148Z,6.00
2018-06-13T19:07:34.417Z,4.97
2018-06-13T19:10:02.725Z,5.03
2018-06-13T19:12:30.883Z,5.17
2018-06-13T19:14:59.323Z,5.50
2018-06-13T19:17:28.046Z,3.23
2018-06-13T19:19:56.392Z,4.70
2018-06-13T19:22:24.680Z,4.53
2018-06-13T19:24:52.996Z,4.07
2018-06-13T19:27:21.268Z,3.50
2018-06-13T19:29:49.540Z,4.90
2018-06-13T19:32:17.873Z,4.00
2018-06-13T19:34:46.090Z,4.03
2018-06-13T19:37:14.530Z,4.07
2018-06-13T19:39:42.856Z,3.73
2018-06-13T19:42:11.231Z,2.93
2018-06-13T19:44:39.530Z,2.37
2018-06-13T19:48:13.616Z,4.83
2018-06-13T19:50:41.913Z,3.27
2018-06-13T19:53:15.584Z,3.53
2018-06-13T19:55:49.393Z,2.20
2018-06-13T19:58:17.732Z,4.03
2018-06-13T20:00:46.009Z,4.07
2018-06-13T20:03:19.616Z,3.90
2018-06-13T20:05:47.867Z,2.87
2018-06-13T20:08:16.120Z,5.07
2018-06-13T20:10:44.383Z,4.30
2018-06-13T20:13:17.828Z,3.23
2018-06-13T20:16:49.157Z,2.47
2018-06-13T20:19:23.025Z,6.07
2018-06-13T20:21:51.445Z,3.07
2018-06-13T20:24:19.952Z,3.53
2018-06-13T20:26:53.695Z,2.57
2018-06-13T20:29:27.393Z,2.27
2018-06-13T20:31:55.694Z,2.83
2018-06-13T20:34:23.687Z,6.40
2018-06-13T20:36:51.987Z,2.13
2018-06-13T20:39:20.257Z,3.87
2018-06-13T20:41:48.508Z,3.17
2018-06-13T20:44:16.748Z,3.13
2018-06-13T20:46:44.983Z,3.67
2018-06-13T20:49:13.235Z,3.23
2018-06-13T20:51:41.487Z,5.27
2018-06-13T20:54:09.739Z,4.07
2018-06-13T20:56:37.993Z,2.97
2018-06-13T20:59:06.233Z,4.03
2018-06-13T21:01:34.501Z,5.17
2018-06-13T21:04:02.730Z,2.60
2018-06-13T21:06:30.985Z,4.20
2018-06-13T21:08:59.263Z,3.10
2018-06-13T21:11:27.506Z,3.57
2018-06-13T21:13:55.794Z,3.30
2018-06-13T21:16:24.048Z,7.10
2018-06-13T21:18:52.289Z,4.27
2018-06-13T21:21:20.535Z,3.30
2018-06-13T21:23:48.782Z,2.90
2018-06-13T21:26:17.041Z,6.10
2018-06-13T21:28:45.268Z,3.83
2018-06-13T21:31:13.535Z,3.07
2018-06-13T21:33:41.805Z,5.07
2018-06-13T21:36:10.037Z,6.13
2018-06-13T21:38:38.280Z,3.60
2018-06-13T21:41:06.547Z,2.93
2018-06-13T21:43:34.782Z,2.47
2018-06-13T21:46:03.038Z,2.83
2018-06-13T21:48:31.281Z,3.20
2018-06-13T21:50:59.520Z,3.57
2018-06-13T21:53:27.759Z,3.90
2018-06-13T21:55:55.996Z,4.80
2018-06-13T21:58:24.257Z,3.70
2018-06-13T22:00:52.513Z,2.90
2018-06-13T22:03:20.761Z,4.30
2018-06-13T22:05:49.010Z,3.73
2018-06-13T22:08:17.291Z,4.57
2018-06-13T22:10:45.522Z,4.13
2018-06-13T22:13:13.781Z,6.63
2018-06-13T22:15:42.021Z,4.90
2018-06-13T22:18:10.420Z,3.60
2018-06-13T22:20:38.661Z,3.60
2018-06-13T22:23:06.914Z,3.73
2018-06-13T22:25:35.149Z,3.47
2018-06-13T22:28:03.431Z,3.83
2018-06-13T22:30:31.676Z,4.80
2018-06-13T22:32:59.910Z,3.70
2018-06-13T22:35:28.146Z,4.43
2018-06-13T22:37:56.136Z,3.53
2018-06-13T22:40:24.373Z,3.13
2018-06-13T22:42:52.686Z,4.83
2018-06-13T22:45:20.933Z,4.57
2018-06-13T22:47:49.179Z,3.33
2018-06-13T22:50:17.438Z,4.40
2018-06-13T22:52:45.672Z,2.73
2018-06-13T22:55:13.918Z,3.07
2018-06-13T22:57:42.161Z,3.10
2018-06-13T23:00:12.730Z,4.23
2018-06-13T23:02:40.988Z,5.30
2018-06-13T23:05:09.257Z,3.90
2018-06-13T23:07:37.490Z,4.80
2018-06-13T23:10:05.733Z,3.23
2018-06-13T23:12:33.973Z,4.30
2018-06-13T23:15:02.224Z,3.23
2018-06-13T23:17:30.462Z,5.43
2018-06-13T23:19:58.459Z,3.80
2018-06-13T23:22:26.690Z,5.60
2018-06-13T23:24:54.941Z,4.07
2018-06-13T23:27:23.192Z,3.40
2018-06-13T23:29:51.417Z,3.07
2018-06-13T23:34:54.264Z,4.43
2018-06-13T23:37:22.501Z,4.73
2018-06-13T23:39:50.484Z,4.50
2018-06-13T23:42:18.713Z,4.07
2018-06-13T23:44:46.957Z,4.43
2018-06-13T23:47:15.189Z,5.93
2018-06-13T23:49:43.425Z,7.17
2018-06-13T23:52:11.673Z,3.73
2018-06-13T23:54:39.904Z,5.63
2018-06-13T23:57:08.176Z,3.87
2018-06-13T23:59:36.406Z,3.87
